createdAt,value
2022-12-06T00:01:16.052Z,8.84
2022-12-06T00:03:45.200Z,8.99
2022-12-06T00:06:19.433Z,8.77
2022-12-06T00:08:47.907Z,8.67
2022-12-06T00:11:20.682Z,8.93
2022-12-06T00:13:48.536Z,8.99
2022-12-06T00:16:17.026Z,8.65
2022-12-06T00:18:46.816Z,8.59
2022-12-06T00:21:22.724Z,8.29
2022-12-06T00:23:55.629Z,8.01
2022-12-06T00:26:24.068Z,8.04
2022-12-06T00:28:56.311Z,8.40
2022-12-06T00:31:25.438Z,8.16
2022-12-06T00:33:53.328Z,8.40
2022-12-06T00:36:31.520Z,8.45
2022-12-06T00:39:00.857Z,8.25
2022-12-06T00:41:30.882Z,7.96
2022-12-06T00:43:58.212Z,7.55
2022-12-06T00:46:32.167Z,7.73
2022-12-06T00:49:00.622Z,7.64
2022-12-06T00:51:30.997Z,7.90
2022-12-06T00:53:58.992Z,8.03
2022-12-06T00:56:27.834Z,8.12
2022-12-06T00:58:55.592Z,8.09
2022-12-06T01:01:30.471Z,8.23
2022-12-06T01:04:00.251Z,8.22
2022-12-06T01:06:30.212Z,8.28
2022-12-06T01:09:00.349Z,8.70
2022-12-06T01:11:29.208Z,8.79
2022-12-06T01:13:56.861Z,8.83
2022-12-06T01:16:27.288Z,8.35
2022-12-06T01:18:57.031Z,8.02
2022-12-06T01:21:25.650Z,7.80
2022-12-06T01:23:54.453Z,7.51
2022-12-06T01:26:25.224Z,7.38
2022-12-06T01:28:53.480Z,7.26
2022-12-06T01:31:21.078Z,7.42
2022-12-06T01:33:48.674Z,7.33
2022-12-06T01:36:18.479Z,7.37
2022-12-06T01:38:52.245Z,7.61
2022-12-06T01:41:21.193Z,7.41
2022-12-06T01:43:48.950Z,7.07
2022-12-06T01:46:25.120Z,7.38
2022-12-06T01:48:58.169Z,7.87
2022-12-06T01:51:25.631Z,7.77
2022-12-06T01:53:54.008Z,7.75
2022-12-06T01:56:21.625Z,7.72
2022-12-06T01:58:50.113Z,6.61
2022-12-06T02:01:17.856Z,6.08
2022-12-06T02:03:47.566Z,7.03
2022-12-06T02:06:15.687Z,7.49
2022-12-06T02:08:43.704Z,7.84
2022-12-06T02:11:11.341Z,7.74
2022-12-06T02:13:39.138Z,8.12
2022-12-06T02:16:24.949Z,7.73
2022-12-06T02:19:17.665Z,8.24
2022-12-06T02:22:07.777Z,8.50
2022-12-06T02:24:51.160Z,8.60
2022-12-06T02:27:32.281Z,8.37
2022-12-06T02:30:11.964Z,8.77
2022-12-06T02:33:00.233Z,8.92
2022-12-06T02:35:33.402Z,8.51
2022-12-06T02:38:08.829Z,7.33
2022-12-06T02:40:57.265Z,7.68
2022-12-06T02:43:28.594Z,8.46
2022-12-06T02:45:58.021Z,8.04
2022-12-06T02:48:25.995Z,7.68
2022-12-06T02:50:57.278Z,7.37
2022-12-06T02:53:26.402Z,8.04
2022-12-06T02:55:54.145Z,7.90
2022-12-06T02:58:21.462Z,7.99
2022-12-06T03:00:59.272Z,8.08
2022-12-06T03:04:00.762Z,7.67
2022-12-06T03:06:40.758Z,7.68
2022-12-06T03:09:52.727Z,7.70
2022-12-06T03:12:30.667Z,7.45
2022-12-06T03:15:09.882Z,7.45
2022-12-06T03:17:43.571Z,7.66
2022-12-06T03:20:42.624Z,7.86
2022-12-06T03:23:40.135Z,7.79
2022-12-06T03:26:11.057Z,7.65
2022-12-06T03:28:39.512Z,7.72
2022-12-06T03:31:11.010Z,7.16
2022-12-06T03:33:49.413Z,7.43
2022-12-06T03:36:18.639Z,7.58
2022-12-06T03:38:55.711Z,7.77
2022-12-06T03:41:25.970Z,7.16
2022-12-06T03:43:53.663Z,7.26
2022-12-06T03:46:24.517Z,7.28
2022-12-06T03:48:55.903Z,6.90
2022-12-06T03:51:26.662Z,7.18
2022-12-06T03:53:57.646Z,7.11
2022-12-06T03:56:26.106Z,7.24
2022-12-06T03:58:53.488Z,7.63
2022-12-06T04:01:20.942Z,7.44
2022-12-06T04:03:48.659Z,7.60
2022-12-06T04:06:16.050Z,7.64
2022-12-06T04:08:43.384Z,7.89
2022-12-06T04:11:10.965Z,6.95
2022-12-06T04:13:38.368Z,5.69
2022-12-06T04:16:26.133Z,5.37
2022-12-06T04:18:54.869Z,6.39
2022-12-06T04:21:31.498Z,6.19
2022-12-06T04:23:59.842Z,6.73
2022-12-06T04:26:27.243Z,6.64
2022-12-06T04:29:13.127Z,6.94
2022-12-06T04:31:59.259Z,7.37
2022-12-06T04:34:44.996Z,7.01
2022-12-06T04:37:30.961Z,7.39
2022-12-06T04:39:58.710Z,7.49
2022-12-06T04:42:45.423Z,8.16
2022-12-06T04:45:12.748Z,8.02
2022-12-06T04:47:40.363Z,8.06
2022-12-06T04:50:07.909Z,7.97
2022-12-06T04:52:36.166Z,8.12
2022-12-06T04:55:04.950Z,8.50
2022-12-06T04:57:32.449Z,8.73
2022-12-06T05:00:00.102Z,8.72
2022-12-06T05:02:28.041Z,8.94
2022-12-06T05:04:55.347Z,8.78
2022-12-06T05:07:22.703Z,8.63
2022-12-06T05:09:51.344Z,8.54
2022-12-06T05:12:18.656Z,8.34
2022-12-06T05:14:46.988Z,8.45
2022-12-06T05:17:14.558Z,8.58
2022-12-06T05:19:41.861Z,8.50
2022-12-06T05:22:09.234Z,8.46
2022-12-06T05:24:36.819Z,8.38
2022-12-06T05:27:04.163Z,7.65
2022-12-06T05:29:31.529Z,8.01
2022-12-06T05:31:59.135Z,8.69
2022-12-06T05:34:26.577Z,8.53
2022-12-06T05:36:53.902Z,8.73
2022-12-06T05:39:21.510Z,8.91
2022-12-06T05:41:48.805Z,8.80
2022-12-06T05:44:16.207Z,8.57
2022-12-06T05:46:43.867Z,8.58
2022-12-06T05:49:11.188Z,8.03
2022-12-06T05:51:38.779Z,7.82
2022-12-06T05:54:06.751Z,7.79
2022-12-06T05:56:34.146Z,8.45
2022-12-06T05:59:01.508Z,8.28
2022-12-06T06:01:29.377Z,7.81
2022-12-06T06:03:57.176Z,8.12
2022-12-06T06:06:25.727Z,8.42
2022-12-06T06:08:53.196Z,8.29
2022-12-06T06:11:20.979Z,7.86
2022-12-06T06:13:48.401Z,7.60
2022-12-06T06:16:17.064Z,7.54
2022-12-06T06:18:44.987Z,8.02
2022-12-06T06:21:12.306Z,8.57
2022-12-06T06:23:39.699Z,9.28
2022-12-06T06:26:11.999Z,9.32
2022-12-06T06:28:39.361Z,7.81
2022-12-06T06:31:07.860Z,6.88
2022-12-06T06:33:36.192Z,7.67
2022-12-06T06:36:04.019Z,8.40
2022-12-06T06:38:31.705Z,8.65
2022-12-06T06:41:02.899Z,8.83
2022-12-06T06:43:30.449Z,7.56
2022-12-06T06:46:00.172Z,6.75
2022-12-06T06:48:30.583Z,7.41
2022-12-06T06:51:09.580Z,6.74
2022-12-06T06:53:37.712Z,7.90
2022-12-06T06:56:06.034Z,8.54
2022-12-06T06:58:33.477Z,8.14
2022-12-06T07:01:02.523Z,7.20
2022-12-06T07:03:30.175Z,7.21
2022-12-06T07:06:08.152Z,6.72
2022-12-06T07:08:35.912Z,7.78
2022-12-06T07:11:03.425Z,7.88
2022-12-06T07:13:31.516Z,7.97
2022-12-06T07:15:59.163Z,7.82
2022-12-06T07:18:26.464Z,8.17
2022-12-06T07:21:05.659Z,7.48
2022-12-06T07:23:34.649Z,7.20
2022-12-06T07:26:07.722Z,7.92
2022-12-06T07:28:36.908Z,8.13
2022-12-06T07:31:15.684Z,7.62
2022-12-06T07:33:43.904Z,8.64
2022-12-06T07:36:13.568Z,8.53
2022-12-06T07:38:49.093Z,8.71
2022-12-06T07:41:36.097Z,8.64
2022-12-06T07:44:30.642Z,8.32
2022-12-06T07:46:58.336Z,8.13
2022-12-06T07:49:25.763Z,6.35
2022-12-06T07:51:53.980Z,5.68
2022-12-06T07:54:22.337Z,5.60
2022-12-06T07:56:49.739Z,5.66
2022-12-06T07:59:17.078Z,5.61
2022-12-06T08:01:44.883Z,5.64
2022-12-06T08:04:12.824Z,7.05
2022-12-06T08:06:40.381Z,6.83
2022-12-06T08:09:08.412Z,5.94
2022-12-06T08:11:36.706Z,6.50
2022-12-06T08:14:04.695Z,5.76
2022-12-06T08:16:32.278Z,5.84
2022-12-06T08:18:59.920Z,5.30
2022-12-06T08:21:27.425Z,5.45
2022-12-06T08:23:55.267Z,5.71
2022-12-06T08:26:23.052Z,5.38
2022-12-06T08:28:50.425Z,5.13
2022-12-06T08:31:24.116Z,6.52
2022-12-06T08:33:51.863Z,5.75
2022-12-06T08:36:21.409Z,6.60
2022-12-06T08:38:49.295Z,5.83
2022-12-06T08:41:39.944Z,5.15
2022-12-06T08:44:11.933Z,5.77
2022-12-06T08:46:40.085Z,6.63
2022-12-06T08:49:07.869Z,6.47
2022-12-06T08:51:36.085Z,6.65
2022-12-06T08:54:04.144Z,6.45
2022-12-06T08:56:32.007Z,6.36
2022-12-06T08:58:59.449Z,6.54
2022-12-06T09:01:35.699Z,6.19
2022-12-06T09:04:06.488Z,6.00
2022-12-06T09:06:36.363Z,5.43
2022-12-06T09:09:03.888Z,6.33
2022-12-06T09:11:31.179Z,6.76
2022-12-06T09:13:58.818Z,6.21
2022-12-06T09:16:27.780Z,6.87
2022-12-06T09:18:55.163Z,6.12
2022-12-06T09:21:26.312Z,6.14
2022-12-06T09:23:57.957Z,6.18
2022-12-06T09:26:26.189Z,6.35
2022-12-06T09:28:54.901Z,5.81
2022-12-06T09:31:23.011Z,6.72
2022-12-06T09:33:51.497Z,6.84
2022-12-06T09:36:30.039Z,6.23
2022-12-06T09:39:02.036Z,6.46
2022-12-06T09:41:50.437Z,6.86
2022-12-06T09:44:39.451Z,6.97
2022-12-06T09:47:31.360Z,5.89
2022-12-06T09:50:26.931Z,6.19
2022-12-06T09:53:15.953Z,5.94
2022-12-06T09:55:56.248Z,6.36
2022-12-06T09:58:41.783Z,6.10
2022-12-06T10:01:37.561Z,6.13
2022-12-06T10:04:38.506Z,6.61
2022-12-06T10:07:24.211Z,6.14
2022-12-06T10:10:18.997Z,6.64
2022-12-06T10:13:23.576Z,6.63
2022-12-06T10:15:53.801Z,6.88
2022-12-06T10:18:59.658Z,6.93
2022-12-06T10:21:45.929Z,6.74
2022-12-06T10:24:22.889Z,7.00
2022-12-06T10:26:53.028Z,7.14
2022-12-06T10:29:40.606Z,6.23
2022-12-06T10:32:17.069Z,6.32
2022-12-06T10:34:54.844Z,6.94
2022-12-06T10:37:38.007Z,6.45
2022-12-06T10:40:16.313Z,7.04
2022-12-06T10:42:49.237Z,7.68
2022-12-06T10:45:47.937Z,7.19
2022-12-06T10:48:27.762Z,7.38
2022-12-06T10:51:01.336Z,6.88
2022-12-06T10:53:32.618Z,6.97
2022-12-06T10:56:14.665Z,6.72
2022-12-06T10:58:51.779Z,7.42
2022-12-06T11:01:22.380Z,7.45
2022-12-06T11:04:00.495Z,7.64
2022-12-06T11:06:34.643Z,7.15
2022-12-06T11:09:21.080Z,7.73
2022-12-06T11:11:49.189Z,7.66
2022-12-06T11:14:28.140Z,7.60
2022-12-06T11:17:02.404Z,7.54
2022-12-06T11:19:34.623Z,7.06
2022-12-06T11:22:20.237Z,7.07
2022-12-06T11:25:18.121Z,7.79
2022-12-06T11:27:52.276Z,7.35
2022-12-06T11:30:21.157Z,7.08
2022-12-06T11:32:50.489Z,7.04
2022-12-06T11:35:23.359Z,7.17
2022-12-06T11:37:55.542Z,7.06
2022-12-06T11:40:27.801Z,7.52
2022-12-06T11:42:57.159Z,7.21
2022-12-06T11:45:26.869Z,7.37
2022-12-06T11:47:56.455Z,7.59
2022-12-06T11:50:26.043Z,7.32
2022-12-06T11:52:59.342Z,7.48
2022-12-06T11:55:41.451Z,7.32
2022-12-06T11:58:15.788Z,6.82
2022-12-06T12:01:16.072Z,6.92
2022-12-06T12:03:45.509Z,7.39
2022-12-06T12:06:17.283Z,7.09
2022-12-06T12:09:02.556Z,7.54
2022-12-06T12:11:32.695Z,7.08
2022-12-06T12:14:25.433Z,7.27
2022-12-06T12:16:59.154Z,7.08
2022-12-06T12:19:32.912Z,7.61
2022-12-06T12:22:21.508Z,6.81
2022-12-06T12:27:41.217Z,7.47
2022-12-06T12:30:31.697Z,7.38
2022-12-06T12:33:05.091Z,7.16
2022-12-06T12:35:34.849Z,7.14
2022-12-06T12:38:11.432Z,7.33
2022-12-06T12:40:49.895Z,7.67
2022-12-06T12:43:31.479Z,7.79
2022-12-06T12:46:11.337Z,7.65
2022-12-06T12:48:40.306Z,6.70
2022-12-06T12:51:34.641Z,7.18
2022-12-06T12:54:18.882Z,7.07
2022-12-06T12:56:46.563Z,7.41
2022-12-06T12:59:17.314Z,7.11
2022-12-06T13:01:54.018Z,7.53
2022-12-06T13:05:11.145Z,7.93
2022-12-06T13:07:42.122Z,7.95
2022-12-06T13:10:24.727Z,7.97
2022-12-06T13:13:02.382Z,7.48
2022-12-06T13:15:40.902Z,7.05
2022-12-06T13:18:26.561Z,6.82
2022-12-06T13:20:57.123Z,7.14
2022-12-06T13:23:27.910Z,7.01
2022-12-06T13:26:18.087Z,6.97
2022-12-06T13:28:50.213Z,7.82
2022-12-06T13:31:20.492Z,7.84
2022-12-06T13:33:58.548Z,7.99
2022-12-06T13:36:27.112Z,8.02
2022-12-06T13:38:56.130Z,7.76
2022-12-06T13:41:54.252Z,7.20
2022-12-06T13:44:42.306Z,7.74
2022-12-06T13:47:27.889Z,7.60
2022-12-06T13:50:15.392Z,6.99
2022-12-06T13:52:42.716Z,7.37
2022-12-06T13:55:25.590Z,7.38
2022-12-06T13:57:55.926Z,7.18
2022-12-06T14:00:29.618Z,7.18
2022-12-06T14:03:21.635Z,7.26
2022-12-06T14:06:14.466Z,7.53
2022-12-06T14:08:54.804Z,7.67
2022-12-06T14:11:35.150Z,7.14
2022-12-06T14:14:15.186Z,7.39
2022-12-06T14:16:51.348Z,7.38
2022-12-06T14:19:20.947Z,6.80
2022-12-06T14:22:02.558Z,7.16
2022-12-06T14:24:39.741Z,7.55
2022-12-06T14:27:13.424Z,7.81
2022-12-06T14:29:42.211Z,7.88
2022-12-06T14:32:09.747Z,7.77
2022-12-06T14:34:37.445Z,6.89
2022-12-06T14:37:21.566Z,6.98
2022-12-06T14:39:53.269Z,6.49
2022-12-06T14:42:39.630Z,6.87
2022-12-06T14:45:13.514Z,7.27
2022-12-06T14:47:42.357Z,7.65
2022-12-06T14:50:28.687Z,6.47
2022-12-06T14:53:06.621Z,6.97
2022-12-06T14:55:36.015Z,7.51
2022-12-06T14:58:15.346Z,6.77
2022-12-06T15:01:22.504Z,7.19
2022-12-06T15:04:11.759Z,6.23
2022-12-06T15:06:52.457Z,5.82
2022-12-06T15:09:22.055Z,5.67
2022-12-06T15:12:08.076Z,5.61
2022-12-06T15:14:49.537Z,5.47
2022-12-06T15:17:19.933Z,5.45
2022-12-06T15:19:53.962Z,5.08
2022-12-06T15:22:27.690Z,5.47
2022-12-06T15:24:57.788Z,5.37
2022-12-06T15:27:27.897Z,5.10
2022-12-06T15:29:55.641Z,5.14
2022-12-06T15:32:24.196Z,4.99
2022-12-06T15:34:51.600Z,5.13
2022-12-06T15:40:59.672Z,5.05
2022-12-06T15:43:33.079Z,5.22
2022-12-06T15:46:02.602Z,5.70
2022-12-06T15:48:32.111Z,4.95
2022-12-06T15:51:00.240Z,4.99
2022-12-06T15:53:29.224Z,5.89
2022-12-06T15:55:57.225Z,5.76
2022-12-06T15:58:24.708Z,5.57
2022-12-06T16:00:52.138Z,5.86
2022-12-06T16:03:19.822Z,5.37
2022-12-06T16:05:48.068Z,6.31
2022-12-06T16:08:19.713Z,6.22
2022-12-06T16:11:11.229Z,5.95
2022-12-06T16:13:35.209Z,5.23
2022-12-06T16:16:03.018Z,5.81
2022-12-06T16:18:30.510Z,6.45
2022-12-06T16:20:58.457Z,5.60
2022-12-06T16:24:12.562Z,5.53
2022-12-06T16:26:37.021Z,5.76
2022-12-06T16:29:07.773Z,5.93
2022-12-06T16:31:38.773Z,6.15
2022-12-06T16:34:07.252Z,7.08
2022-12-06T16:36:35.261Z,7.39
2022-12-06T16:39:05.158Z,7.06
2022-12-06T16:41:34.798Z,7.27
2022-12-06T16:44:03.542Z,6.53
2022-12-06T16:46:33.160Z,6.24
2022-12-06T16:49:44.710Z,5.43
2022-12-06T16:52:03.186Z,4.87
2022-12-06T16:54:31.142Z,5.15
2022-12-06T16:56:58.850Z,4.92
2022-12-06T16:59:26.701Z,4.68
2022-12-06T17:01:56.606Z,4.53
2022-12-06T17:04:26.133Z,4.32
2022-12-06T17:06:56.265Z,4.50
2022-12-06T17:09:24.908Z,4.65
2022-12-06T17:12:07.002Z,4.78
2022-12-06T17:14:36.411Z,5.10
2022-12-06T17:17:04.602Z,5.11
2022-12-06T17:19:34.014Z,4.73
2022-12-06T17:22:02.437Z,5.08
2022-12-06T17:24:37.599Z,5.58
2022-12-06T17:27:07.097Z,6.74
2022-12-06T17:29:36.672Z,6.36
2022-12-06T17:32:05.956Z,5.90
2022-12-06T17:34:34.522Z,5.23
2022-12-06T17:37:03.418Z,4.71
2022-12-06T17:39:31.697Z,4.88
2022-12-06T17:42:18.697Z,4.43
2022-12-06T17:44:47.545Z,4.75
2022-12-06T17:47:16.150Z,4.10
2022-12-06T17:49:44.854Z,3.81
2022-12-06T17:52:13.695Z,3.83
2022-12-06T17:54:41.372Z,3.85
2022-12-06T17:57:16.579Z,3.95
2022-12-06T17:59:46.841Z,4.40
2022-12-06T18:02:18.869Z,5.25
2022-12-06T18:04:48.318Z,6.01
2022-12-06T18:07:17.243Z,6.00
2022-12-06T18:09:45.964Z,6.74
2022-12-06T18:12:17.098Z,6.55
2022-12-06T18:14:45.507Z,6.07
2022-12-06T18:17:14.272Z,6.41
2022-12-06T18:19:50.585Z,6.64
2022-12-06T18:22:19.228Z,6.87
2022-12-06T18:24:49.216Z,5.88
2022-12-06T18:27:18.966Z,5.35
2022-12-06T18:29:47.332Z,5.31
2022-12-06T18:32:15.902Z,5.15
2022-12-06T18:34:44.939Z,4.45
2022-12-06T18:37:13.995Z,4.28
2022-12-06T18:39:41.984Z,4.33
2022-12-06T18:42:10.086Z,4.00
2022-12-06T18:44:41.759Z,3.81
2022-12-06T18:47:10.290Z,3.40
2022-12-06T18:49:38.684Z,4.02
2022-12-06T18:52:08.397Z,3.30
2022-12-06T18:54:36.678Z,3.14
2022-12-06T18:57:05.649Z,3.52
2022-12-06T18:59:38.004Z,3.16
2022-12-06T19:02:06.491Z,2.98
2022-12-06T19:04:37.160Z,3.28
2022-12-06T19:07:06.815Z,3.23
2022-12-06T19:09:41.580Z,3.48
2022-12-06T19:12:10.864Z,3.23
2022-12-06T19:14:40.069Z,2.61
2022-12-06T19:17:13.880Z,2.59
2022-12-06T19:19:44.356Z,2.74
2022-12-06T19:22:13.208Z,2.66
2022-12-06T19:24:43.084Z,2.60
2022-12-06T19:27:13.237Z,2.78
2022-12-06T19:29:45.061Z,3.33
2022-12-06T19:32:19.058Z,4.31
2022-12-06T19:34:47.872Z,4.93
2022-12-06T19:37:26.834Z,5.26
2022-12-06T19:39:55.968Z,5.19
2022-12-06T19:42:44.377Z,5.40
2022-12-06T19:45:14.417Z,5.56
2022-12-06T19:47:44.572Z,5.36
2022-12-06T19:50:12.995Z,4.30
2022-12-06T19:52:42.241Z,3.70
2022-12-06T19:55:14.197Z,3.80
2022-12-06T19:57:46.641Z,3.26
2022-12-06T20:00:23.040Z,3.47
2022-12-06T20:02:52.167Z,3.48
2022-12-06T20:05:22.029Z,3.87
2022-12-06T20:07:50.023Z,3.93
2022-12-06T20:10:19.356Z,3.95
2022-12-06T20:12:48.140Z,4.19
2022-12-06T20:15:16.772Z,4.69
2022-12-06T20:17:45.992Z,5.01
2022-12-06T20:20:15.094Z,5.49
2022-12-06T20:22:43.467Z,4.22
2022-12-06T20:25:16.252Z,4.91
2022-12-06T20:27:51.458Z,4.39
2022-12-06T20:30:23.952Z,3.70
2022-12-06T20:32:53.233Z,3.65
2022-12-06T20:35:21.252Z,3.11
2022-12-06T20:37:53.046Z,2.55
2022-12-06T20:40:26.933Z,2.30
2022-12-06T20:43:01.512Z,2.72
2022-12-06T20:45:34.663Z,2.51
2022-12-06T20:48:03.046Z,1.64
2022-12-06T20:50:32.302Z,1.37
2022-12-06T20:53:00.348Z,1.09
2022-12-06T20:55:29.086Z,1.14
2022-12-06T20:57:58.008Z,1.66
2022-12-06T21:00:26.490Z,2.55
2022-12-06T21:02:55.501Z,2.73
2022-12-06T21:05:24.245Z,2.52
2022-12-06T21:07:52.369Z,2.94
2022-12-06T21:10:19.776Z,4.19
2022-12-06T21:12:47.895Z,3.97
2022-12-06T21:15:15.843Z,3.17
2022-12-06T21:17:43.559Z,1.93
2022-12-06T21:20:12.214Z,1.55
2022-12-06T21:22:40.826Z,2.20
2022-12-06T21:25:09.444Z,2.90
2022-12-06T21:27:37.603Z,3.45
2022-12-06T21:30:07.562Z,3.04
2022-12-06T21:32:35.031Z,2.30
2022-12-06T21:35:02.660Z,3.17
2022-12-06T21:37:31.104Z,4.31
2022-12-06T21:40:00.317Z,4.29
2022-12-06T21:42:29.050Z,4.00
2022-12-06T21:44:56.452Z,4.10
2022-12-06T21:47:23.819Z,4.56
2022-12-06T21:49:51.463Z,4.42
2022-12-06T21:52:18.866Z,4.17
2022-12-06T21:54:46.275Z,2.70
2022-12-06T21:57:13.944Z,1.90
2022-12-06T21:59:41.485Z,2.08
2022-12-06T22:02:13.197Z,1.75
2022-12-06T22:04:40.989Z,1.81
2022-12-06T22:07:09.566Z,1.42
2022-12-06T22:09:37.061Z,1.22
2022-12-06T22:12:05.205Z,1.10
2022-12-06T22:14:32.640Z,1.03
2022-12-06T22:17:01.065Z,1.00
2022-12-06T22:19:29.154Z,0.95
2022-12-06T22:21:56.857Z,1.67
2022-12-06T22:24:24.589Z,1.87
2022-12-06T22:26:52.272Z,1.95
2022-12-06T22:29:19.640Z,1.93
2022-12-06T22:31:48.278Z,1.81
2022-12-06T22:34:16.098Z,2.15
2022-12-06T22:36:43.486Z,2.09
2022-12-06T22:39:11.249Z,2.10
2022-12-06T22:41:39.330Z,2.07
2022-12-06T22:44:07.194Z,2.08
2022-12-06T22:46:36.703Z,2.85
2022-12-06T22:49:05.344Z,2.72
2022-12-06T22:51:36.708Z,2.05
2022-12-06T22:54:12.566Z,2.27
2022-12-06T22:56:47.140Z,2.27
2022-12-06T22:59:15.947Z,1.83
2022-12-06T23:01:43.640Z,1.90
2022-12-06T23:04:11.920Z,1.68
2022-12-06T23:06:40.025Z,1.63
2022-12-06T23:09:07.944Z,1.77
2022-12-06T23:11:36.695Z,1.82
2022-12-06T23:14:04.734Z,2.14
2022-12-06T23:16:33.052Z,1.85
2022-12-06T23:19:01.961Z,1.97
2022-12-06T23:21:32.064Z,2.06
2022-12-06T23:24:02.385Z,1.94
2022-12-06T23:26:35.461Z,2.11
2022-12-06T23:29:03.833Z,1.95
2022-12-06T23:31:34.689Z,1.59
2022-12-06T23:34:05.592Z,1.72
2022-12-06T23:36:35.113Z,2.12
2022-12-06T23:39:03.455Z,1.38
2022-12-06T23:41:31.863Z,1.27
2022-12-06T23:44:00.142Z,1.40
2022-12-06T23:46:30.096Z,1.21
2022-12-06T23:48:58.164Z,0.86
2022-12-06T23:51:34.086Z,1.05
2022-12-06T23:54:03.436Z,1.22
2022-12-06T23:56:33.838Z,1.09
2022-12-06T23:59:02.051Z,1.23
